LFMV/AVN METAR and TAF weather

Enter ICAO airport designator
Station Type Date Time Source
LFMV METAR 2020/11/27 03:00 UTC NOAA

LFMV 270300Z AUTO 00000KT CAVOK 04/03 Q1019 NOSIG


Station Type Date Time Source
LFMV Decoded METAR 2020/11/27 03:00 UTC NOAA

Station name not available
Nov 26, 2020 - 10:00 PM EST / 2020.11.27 0300 UTC
Wind: Calm:0
Visibility: greater than 7 mile(s):0
Temperature: 39 F (4 C)
Dew Point: 37 F (3 C)
Relative Humidity: 93%
Pressure (altimeter): 30.09 in. Hg (1019 hPa)
ob: LFMV 270300Z AUTO 00000KT CAVOK 04/03 Q1019 NOSIG
cycle: 3

Station Type Date Time Source
LFMV TAF 2020/11/27 03:00 UTC NOAA

TAF LFMV 270200Z 2703/2803 VRB04KT 9999 BKN050
BECMG 2715/2717 CAVOK

Example: see airport list